createdAt,value
2022-08-14T00:01:10.310Z,26.81
2022-08-14T00:03:40.424Z,26.84
2022-08-14T00:06:13.849Z,26.74
2022-08-14T00:08:52.600Z,26.83
2022-08-14T00:11:19.760Z,26.74
2022-08-14T00:13:51.734Z,26.84
2022-08-14T00:16:41.198Z,26.83
2022-08-14T00:19:19.139Z,26.84
2022-08-14T00:21:47.865Z,26.83
2022-08-14T00:24:23.312Z,26.83
2022-08-14T00:26:56.440Z,26.80
2022-08-14T00:29:25.280Z,26.74
2022-08-14T00:31:55.274Z,26.82
2022-08-14T00:34:36.804Z,26.82
2022-08-14T00:37:10.288Z,26.83
2022-08-14T00:39:37.284Z,26.83
2022-08-14T00:42:05.279Z,26.82
2022-08-14T00:44:33.352Z,26.83
2022-08-14T00:47:06.161Z,26.82
2022-08-14T00:49:42.628Z,26.82
2022-08-14T00:52:14.129Z,26.82
2022-08-14T00:54:45.471Z,26.82
2022-08-14T00:57:12.479Z,26.82
2022-08-14T00:59:39.610Z,26.81
2022-08-14T01:02:09.169Z,26.82
2022-08-14T01:04:37.690Z,26.82
2022-08-14T01:07:22.647Z,26.81
2022-08-14T01:10:01.757Z,26.82
2022-08-14T01:12:30.059Z,26.81
2022-08-14T01:15:02.393Z,26.81
2022-08-14T01:17:50.790Z,26.81
2022-08-14T01:20:41.027Z,26.81
2022-08-14T01:23:16.731Z,26.81
2022-08-14T01:25:51.558Z,26.81
2022-08-14T01:28:34.202Z,26.81
2022-08-14T01:33:26.185Z,26.80
2022-08-14T01:36:05.464Z,26.80
2022-08-14T01:38:48.968Z,26.79
2022-08-14T01:41:19.784Z,26.79
2022-08-14T01:44:01.480Z,26.79
2022-08-14T01:46:37.201Z,26.78
2022-08-14T01:49:08.577Z,26.79
2022-08-14T01:51:37.168Z,26.78
2022-08-14T01:54:09.967Z,26.78
2022-08-14T01:56:42.789Z,26.79
2022-08-14T01:59:18.498Z,26.78
2022-08-14T02:01:58.677Z,26.78
2022-08-14T02:04:56.089Z,26.78
2022-08-14T02:07:27.208Z,26.69
2022-08-14T02:10:06.732Z,26.78
2022-08-14T02:12:33.757Z,26.77
2022-08-14T02:15:01.859Z,26.76
2022-08-14T02:19:55.893Z,26.77
2022-08-14T02:22:29.194Z,26.77
2022-08-14T02:25:00.139Z,26.77
2022-08-14T02:28:23.040Z,26.77
2022-08-14T02:30:15.932Z,26.77
2022-08-14T02:32:43.266Z,26.67
2022-08-14T02:35:18.904Z,26.77
2022-08-14T02:37:49.286Z,26.76
2022-08-14T02:40:19.089Z,26.74
2022-08-14T02:42:54.140Z,26.78
2022-08-14T02:45:22.234Z,26.77
2022-08-14T02:47:49.595Z,26.76
2022-08-14T02:50:26.990Z,26.77
2022-08-14T02:52:57.497Z,26.68
2022-08-14T02:55:31.006Z,26.76
2022-08-14T02:57:58.035Z,26.77
2022-08-14T03:00:26.586Z,26.75
2022-08-14T03:02:59.038Z,26.76
2022-08-14T03:05:30.387Z,26.76
2022-08-14T03:08:15.140Z,26.76
2022-08-14T03:10:48.760Z,26.76
2022-08-14T03:13:20.898Z,26.75
2022-08-14T03:15:55.096Z,26.76
2022-08-14T03:18:31.583Z,26.76
2022-08-14T03:21:05.945Z,26.76
2022-08-14T03:23:38.081Z,26.74
2022-08-14T03:26:13.311Z,26.76
2022-08-14T03:28:51.290Z,26.75
2022-08-14T03:31:26.154Z,26.76
2022-08-14T03:33:55.957Z,26.74
2022-08-14T03:37:37.467Z,26.65
2022-08-14T03:39:21.313Z,26.74
2022-08-14T03:41:54.398Z,26.75
2022-08-14T03:45:25.584Z,26.75
2022-08-14T03:47:09.296Z,26.73
2022-08-14T03:49:42.268Z,26.74
2022-08-14T03:52:38.555Z,26.75
2022-08-14T03:54:57.259Z,26.74
2022-08-14T03:57:24.440Z,26.74
2022-08-14T03:59:51.418Z,26.73
2022-08-14T04:02:33.377Z,26.74
2022-08-14T04:05:11.624Z,26.69
2022-08-14T04:07:41.509Z,26.75
2022-08-14T04:10:32.250Z,26.74
2022-08-14T04:13:04.386Z,26.75
2022-08-14T04:15:52.740Z,26.75
2022-08-14T04:18:21.436Z,26.74
2022-08-14T04:20:54.363Z,26.74
2022-08-14T04:23:23.690Z,26.73
2022-08-14T04:25:55.905Z,26.74
2022-08-14T04:29:06.742Z,26.70
2022-08-14T04:31:09.569Z,26.74
2022-08-14T04:33:37.674Z,26.74
2022-08-14T04:36:04.937Z,26.74
2022-08-14T04:38:50.040Z,26.75
2022-08-14T04:41:35.336Z,26.75
2022-08-14T04:44:05.041Z,26.65
2022-08-14T04:46:56.404Z,26.73
2022-08-14T04:49:22.543Z,26.74
2022-08-14T04:54:17.243Z,26.73
2022-08-14T04:56:44.001Z,26.73
2022-08-14T04:59:12.061Z,26.63
2022-08-14T05:01:45.237Z,26.74
2022-08-14T05:04:16.389Z,26.73
2022-08-14T05:06:47.051Z,26.71
2022-08-14T05:09:15.965Z,26.64
2022-08-14T05:11:44.524Z,26.74
2022-08-14T05:14:34.104Z,26.74
2022-08-14T05:17:02.088Z,26.74
2022-08-14T05:19:32.739Z,26.74
2022-08-14T05:22:17.330Z,26.73
2022-08-14T05:24:50.511Z,26.69
2022-08-14T05:27:22.422Z,26.70
2022-08-14T05:29:53.018Z,26.72
2022-08-14T05:32:19.670Z,26.75
2022-08-14T05:34:47.236Z,26.76
2022-08-14T05:37:15.343Z,26.75
2022-08-14T05:39:42.813Z,26.76
2022-08-14T05:42:10.129Z,26.77
2022-08-14T05:47:15.375Z,26.76
2022-08-14T05:49:42.033Z,26.76
2022-08-14T05:52:09.860Z,26.78
2022-08-14T05:54:36.844Z,26.78
2022-08-14T05:57:04.571Z,26.77
2022-08-14T05:59:36.758Z,26.76
2022-08-14T06:02:10.563Z,26.70
2022-08-14T06:04:39.189Z,26.78
2022-08-14T06:07:06.631Z,26.78
2022-08-14T06:09:35.691Z,26.78
2022-08-14T06:12:08.600Z,26.79
2022-08-14T06:14:36.581Z,26.79
2022-08-14T06:17:04.574Z,26.75
2022-08-14T06:19:31.454Z,26.79
2022-08-14T06:21:59.542Z,26.79
2022-08-14T06:24:27.255Z,26.80
2022-08-14T06:27:04.535Z,26.79
2022-08-14T06:29:35.246Z,26.80
2022-08-14T06:32:38.573Z,26.80
2022-08-14T06:35:03.922Z,26.81
2022-08-14T06:37:41.515Z,26.81
2022-08-14T06:40:25.650Z,26.81
2022-08-14T06:43:00.219Z,26.82
2022-08-14T06:45:27.957Z,26.82
2022-08-14T06:47:55.528Z,26.82
2022-08-14T06:50:28.142Z,26.82
2022-08-14T06:52:55.968Z,26.83
2022-08-14T06:55:27.790Z,26.82
2022-08-14T06:57:55.257Z,26.83
2022-08-14T07:00:26.904Z,26.84
2022-08-14T07:03:13.690Z,26.84
2022-08-14T07:05:57.832Z,26.84
2022-08-14T07:08:31.509Z,26.84
2022-08-14T07:11:01.545Z,26.81
2022-08-14T07:13:28.684Z,26.85
2022-08-14T07:16:00.583Z,26.84
2022-08-14T07:18:34.348Z,26.85
2022-08-14T07:21:02.489Z,26.86
2022-08-14T07:23:31.068Z,26.85
2022-08-14T07:25:59.138Z,26.85
2022-08-14T07:28:33.049Z,26.85
2022-08-14T07:31:04.665Z,26.86
2022-08-14T07:33:36.194Z,26.85
2022-08-14T07:36:09.036Z,26.86
2022-08-14T07:38:53.401Z,26.77
2022-08-14T07:41:20.044Z,26.85
2022-08-14T07:43:47.601Z,26.84
2022-08-14T07:46:28.361Z,26.85
2022-08-14T07:48:56.887Z,26.85
2022-08-14T07:51:23.840Z,26.86
2022-08-14T07:53:57.035Z,26.85
2022-08-14T07:56:47.935Z,26.84
2022-08-14T07:59:11.627Z,26.86
2022-08-14T08:01:47.953Z,26.85
2022-08-14T08:04:27.264Z,26.86
2022-08-14T08:06:55.644Z,26.86
2022-08-14T08:09:31.795Z,26.86
2022-08-14T08:12:01.709Z,26.86
2022-08-14T08:14:55.521Z,26.86
2022-08-14T08:17:23.311Z,26.85
2022-08-14T08:22:16.505Z,26.85
2022-08-14T08:24:43.724Z,26.86
2022-08-14T08:27:17.753Z,26.87
2022-08-14T08:29:51.137Z,26.87
2022-08-14T08:32:18.443Z,26.84
2022-08-14T08:34:46.718Z,26.88
2022-08-14T08:37:14.999Z,26.88
2022-08-14T08:40:02.715Z,26.88
2022-08-14T08:42:38.702Z,26.86
2022-08-14T08:45:12.296Z,26.89
2022-08-14T08:47:43.075Z,26.89
2022-08-14T08:53:10.289Z,26.89
2022-08-14T08:55:44.298Z,26.89
2022-08-14T08:58:19.984Z,26.90
2022-08-14T09:00:57.104Z,26.90
2022-08-14T09:03:27.992Z,26.89
2022-08-14T09:05:58.965Z,26.91
2022-08-14T09:08:31.947Z,26.91
2022-08-14T09:11:19.091Z,26.91
2022-08-14T09:13:49.610Z,26.91
2022-08-14T09:16:23.431Z,26.91
2022-08-14T09:18:50.707Z,26.91
2022-08-14T09:21:21.339Z,26.92
2022-08-14T09:24:29.537Z,26.64
2022-08-14T09:26:42.069Z,26.92
2022-08-14T09:29:11.244Z,26.93
2022-08-14T09:31:52.980Z,26.94
2022-08-14T09:34:38.895Z,26.94
2022-08-14T09:37:31.792Z,26.95
2022-08-14T09:40:38.901Z,26.94
2022-08-14T09:43:43.933Z,26.94
2022-08-14T09:46:11.752Z,26.94
2022-08-14T09:48:43.829Z,26.94
2022-08-14T09:54:19.065Z,26.96
2022-08-14T09:56:57.399Z,26.96
2022-08-14T09:59:27.939Z,26.97
2022-08-14T10:01:57.082Z,26.96
2022-08-14T10:04:36.552Z,26.97
2022-08-14T10:07:08.590Z,26.98
2022-08-14T10:09:59.928Z,26.91
2022-08-14T10:12:51.711Z,26.99
2022-08-14T10:15:25.126Z,26.93
2022-08-14T10:18:05.275Z,26.99
2022-08-14T10:20:41.924Z,27.00
2022-08-14T10:23:18.287Z,27.00
2022-08-14T10:25:53.139Z,26.93
2022-08-14T10:28:39.220Z,26.96
2022-08-14T10:31:43.131Z,26.97
2022-08-14T10:34:14.171Z,27.02
2022-08-14T10:39:06.740Z,27.02
2022-08-14T10:41:48.517Z,27.03
2022-08-14T10:44:21.302Z,27.02
2022-08-14T10:47:36.810Z,27.03
2022-08-14T10:49:50.151Z,27.03
2022-08-14T10:52:24.271Z,27.03
2022-08-14T10:54:56.346Z,27.03
2022-08-14T10:57:27.780Z,27.04
2022-08-14T10:59:56.241Z,27.03
2022-08-14T11:02:44.557Z,27.05
2022-08-14T11:05:18.755Z,27.04
2022-08-14T11:07:56.874Z,27.05
2022-08-14T11:10:50.328Z,27.05
2022-08-14T11:13:24.193Z,27.05
2022-08-14T11:15:51.109Z,26.66
2022-08-14T11:18:20.575Z,27.06
2022-08-14T11:20:59.765Z,27.06
2022-08-14T11:23:38.691Z,27.07
2022-08-14T11:26:08.789Z,27.07
2022-08-14T11:28:47.461Z,27.07
2022-08-14T11:31:23.443Z,27.07
2022-08-14T11:33:57.894Z,27.08
2022-08-14T11:37:02.157Z,27.07
2022-08-14T11:39:34.890Z,27.08
2022-08-14T11:42:56.215Z,27.08
2022-08-14T11:45:04.319Z,27.00
2022-08-14T11:48:10.729Z,27.09
2022-08-14T11:50:37.100Z,27.08
2022-08-14T11:53:07.137Z,27.10
2022-08-14T11:55:38.070Z,27.10
2022-08-14T11:58:10.500Z,27.10
2022-08-14T12:00:55.029Z,27.09
2022-08-14T12:03:27.095Z,27.11
2022-08-14T12:06:28.644Z,27.10
2022-08-14T12:09:00.277Z,27.10
2022-08-14T12:11:38.337Z,27.11
2022-08-14T12:14:13.607Z,27.10
2022-08-14T12:17:11.836Z,27.10
2022-08-14T12:19:46.217Z,27.11
2022-08-14T12:22:29.842Z,27.03
2022-08-14T12:24:57.612Z,27.12
2022-08-14T12:27:52.029Z,27.12
2022-08-14T12:30:29.424Z,27.11
2022-08-14T12:33:08.381Z,27.12
2022-08-14T12:35:40.259Z,27.12
2022-08-14T12:38:07.344Z,27.12
2022-08-14T12:40:34.000Z,27.14
2022-08-14T12:43:03.248Z,27.13
2022-08-14T12:45:33.617Z,27.13
2022-08-14T12:48:21.617Z,27.13
2022-08-14T12:50:52.505Z,27.14
2022-08-14T12:53:20.791Z,27.06
2022-08-14T12:56:22.755Z,27.14
2022-08-14T12:58:52.829Z,27.14
2022-08-14T13:01:28.773Z,27.06
2022-08-14T13:04:08.247Z,27.14
2022-08-14T13:06:38.599Z,27.14
2022-08-14T13:09:07.881Z,27.14
2022-08-14T13:11:58.857Z,27.15
2022-08-14T13:14:38.368Z,27.14
2022-08-14T13:17:05.508Z,27.15
2022-08-14T13:19:37.588Z,27.16
2022-08-14T13:22:09.758Z,27.17
2022-08-14T13:24:39.815Z,27.16
2022-08-14T13:27:09.885Z,27.17
2022-08-14T13:29:43.868Z,27.17
2022-08-14T13:32:15.196Z,27.17
2022-08-14T13:34:45.478Z,27.17
2022-08-14T13:37:15.487Z,27.18
2022-08-14T13:39:56.686Z,27.18
2022-08-14T13:42:30.349Z,27.17
2022-08-14T13:47:29.593Z,27.18
2022-08-14T13:50:03.013Z,27.17
2022-08-14T13:52:52.353Z,27.19
2022-08-14T13:55:30.886Z,27.18
2022-08-14T13:58:03.490Z,27.18
2022-08-14T14:00:53.437Z,27.17
2022-08-14T14:03:25.449Z,27.19
2022-08-14T14:05:57.905Z,27.19
2022-08-14T14:08:46.119Z,27.09
2022-08-14T14:11:16.365Z,27.19
2022-08-14T14:13:48.529Z,27.20
2022-08-14T14:16:26.637Z,27.18
2022-08-14T14:19:08.729Z,27.20
2022-08-14T14:21:38.074Z,27.20
2022-08-14T14:24:07.933Z,27.20
2022-08-14T14:26:50.100Z,27.12
2022-08-14T14:29:24.075Z,27.21
2022-08-14T14:34:20.173Z,27.21
2022-08-14T14:36:56.244Z,27.21
2022-08-14T14:39:28.851Z,27.21
2022-08-14T14:42:04.193Z,27.21
2022-08-14T14:44:40.182Z,27.21
2022-08-14T14:47:11.549Z,27.22
2022-08-14T14:49:41.833Z,27.20
2022-08-14T14:52:27.488Z,27.21
2022-08-14T14:54:57.568Z,27.21
2022-08-14T14:57:35.667Z,27.22
2022-08-14T15:00:19.265Z,27.10
2022-08-14T15:02:52.337Z,27.22
2022-08-14T15:05:20.534Z,27.22
2022-08-14T15:07:49.927Z,27.22
2022-08-14T15:10:27.880Z,27.23
2022-08-14T15:13:00.274Z,27.23
2022-08-14T15:15:30.164Z,27.22
2022-08-14T15:17:59.393Z,27.23
2022-08-14T15:20:29.729Z,27.20
2022-08-14T15:22:57.828Z,27.22
2022-08-14T15:25:24.697Z,27.22
2022-08-14T15:27:54.627Z,27.23
2022-08-14T15:30:23.667Z,27.24
2022-08-14T15:32:51.748Z,27.17
2022-08-14T15:35:22.250Z,27.19
2022-08-14T15:37:55.826Z,27.24
2022-08-14T15:40:23.391Z,27.20
2022-08-14T15:42:50.043Z,27.23
2022-08-14T15:45:17.333Z,27.23
2022-08-14T15:47:44.268Z,27.23
2022-08-14T15:50:13.066Z,27.23
2022-08-14T15:52:41.467Z,27.23
2022-08-14T15:55:14.804Z,27.24
2022-08-14T15:58:02.359Z,27.24
2022-08-14T16:03:00.398Z,27.19
2022-08-14T16:05:27.228Z,27.24
2022-08-14T16:08:26.589Z,27.23
2022-08-14T16:10:56.482Z,27.24
2022-08-14T16:13:23.049Z,27.23
2022-08-14T16:16:47.138Z,27.24
2022-08-14T16:19:07.301Z,27.25
2022-08-14T16:21:39.390Z,27.23
2022-08-14T16:24:06.496Z,27.24
2022-08-14T16:26:34.255Z,27.25
2022-08-14T16:29:07.531Z,27.23
2022-08-14T16:31:38.031Z,27.23
2022-08-14T16:34:45.537Z,27.20
2022-08-14T16:36:53.978Z,27.24
2022-08-14T16:39:22.768Z,27.24
2022-08-14T16:41:52.343Z,27.23
2022-08-14T16:44:33.823Z,27.24
2022-08-14T16:47:02.303Z,27.24
2022-08-14T16:50:03.162Z,27.25
2022-08-14T16:52:26.059Z,27.24
2022-08-14T16:55:09.563Z,27.24
2022-08-14T16:57:54.939Z,27.25
2022-08-14T17:00:28.750Z,27.24
2022-08-14T17:03:12.884Z,27.20
2022-08-14T17:05:43.320Z,27.25
2022-08-14T17:08:41.532Z,27.24
2022-08-14T17:11:09.952Z,27.19
2022-08-14T17:13:58.719Z,27.24
2022-08-14T17:16:26.038Z,27.23
2022-08-14T17:19:03.662Z,27.25
2022-08-14T17:21:38.167Z,27.24
2022-08-14T17:24:51.508Z,27.24
2022-08-14T17:26:59.877Z,27.24
2022-08-14T17:29:33.597Z,27.24
2022-08-14T17:32:21.947Z,27.25
2022-08-14T17:34:54.334Z,27.24
2022-08-14T17:37:26.653Z,27.24
2022-08-14T17:40:26.373Z,27.24
2022-08-14T17:43:02.221Z,27.24
2022-08-14T17:45:41.021Z,27.25
2022-08-14T17:49:15.445Z,27.25
2022-08-14T17:51:14.463Z,27.24
2022-08-14T17:53:53.473Z,27.24
2022-08-14T17:56:28.960Z,27.22
2022-08-14T18:01:29.640Z,27.24
2022-08-14T18:03:58.386Z,27.23
2022-08-14T18:06:39.753Z,27.23
2022-08-14T18:09:25.313Z,27.25
2022-08-14T18:12:01.413Z,26.99
2022-08-14T18:14:33.185Z,26.95
2022-08-14T18:17:16.061Z,27.24
2022-08-14T18:19:44.645Z,27.17
2022-08-14T18:22:30.929Z,27.25
2022-08-14T18:24:58.894Z,27.24
2022-08-14T18:27:36.088Z,27.26
2022-08-14T18:30:33.325Z,27.25
2022-08-14T18:32:54.714Z,27.26
2022-08-14T18:35:46.345Z,27.24
2022-08-14T18:38:26.488Z,27.24
2022-08-14T18:41:36.580Z,27.19
2022-08-14T18:44:11.031Z,27.25
2022-08-14T18:47:14.685Z,27.25
2022-08-14T18:50:00.972Z,27.24
2022-08-14T18:52:33.936Z,27.24
2022-08-14T18:55:20.940Z,27.23
2022-08-14T18:57:58.223Z,27.23
2022-08-14T19:00:33.540Z,27.23
2022-08-14T19:03:05.240Z,27.23
2022-08-14T19:05:47.644Z,27.23
2022-08-14T19:08:18.212Z,27.22
2022-08-14T19:10:48.693Z,27.23
2022-08-14T19:13:27.788Z,27.23
2022-08-14T19:16:22.629Z,27.23
2022-08-14T19:19:00.285Z,27.14
2022-08-14T19:21:40.889Z,27.23
2022-08-14T19:24:27.375Z,27.22
2022-08-14T19:27:23.206Z,27.23
2022-08-14T19:30:20.528Z,27.22
2022-08-14T19:32:56.007Z,27.22
2022-08-14T19:35:48.659Z,27.22
2022-08-14T19:38:54.168Z,27.23
2022-08-14T19:41:40.686Z,27.22
2022-08-14T19:44:19.988Z,27.13
2022-08-14T19:47:00.110Z,27.13
2022-08-14T19:50:24.486Z,27.21
2022-08-14T19:52:37.392Z,27.22
2022-08-14T19:55:19.862Z,26.96
2022-08-14T19:57:51.988Z,27.22
2022-08-14T20:03:10.185Z,27.22
2022-08-14T20:05:45.358Z,27.21
2022-08-14T20:10:59.683Z,27.14
2022-08-14T20:11:21.087Z,27.22
2022-08-14T20:13:46.685Z,27.23
2022-08-14T20:16:21.064Z,27.22
2022-08-14T20:19:08.335Z,27.23
2022-08-14T20:21:37.096Z,27.22
2022-08-14T20:24:33.112Z,27.23
2022-08-14T20:27:34.139Z,27.22
2022-08-14T20:30:28.832Z,27.21
2022-08-14T20:32:55.121Z,27.21
2022-08-14T20:35:35.414Z,27.23
2022-08-14T20:38:29.742Z,27.22
2022-08-14T20:41:00.655Z,27.21
2022-08-14T20:43:53.202Z,27.22
2022-08-14T20:46:29.669Z,27.20
2022-08-14T20:48:56.679Z,27.21
2022-08-14T20:51:38.813Z,27.21
2022-08-14T20:54:14.354Z,27.21
2022-08-14T20:56:44.529Z,27.20
2022-08-14T20:59:19.175Z,27.21
2022-08-14T21:01:55.262Z,27.20
2022-08-14T21:04:29.623Z,27.21
2022-08-14T21:07:25.236Z,27.21
2022-08-14T21:10:06.645Z,27.21
2022-08-14T21:13:13.948Z,27.20
2022-08-14T21:15:27.316Z,27.22
2022-08-14T21:17:59.012Z,27.21
2022-08-14T21:20:28.973Z,27.21
2022-08-14T21:23:00.419Z,27.18
2022-08-14T21:25:31.361Z,27.21
2022-08-14T21:28:02.533Z,27.21
2022-08-14T21:30:47.106Z,27.20
2022-08-14T21:33:21.686Z,27.20
2022-08-14T21:35:55.822Z,27.20
2022-08-14T21:38:31.157Z,27.21
2022-08-14T21:41:41.364Z,27.20
2022-08-14T21:44:18.121Z,27.21
2022-08-14T21:46:58.347Z,27.20
2022-08-14T21:49:33.877Z,27.20
2022-08-14T21:52:49.256Z,27.21
2022-08-14T21:55:09.659Z,27.10
2022-08-14T21:58:04.157Z,27.21
2022-08-14T22:00:36.597Z,27.20
2022-08-14T22:03:10.150Z,27.20
2022-08-14T22:05:38.943Z,27.21
2022-08-14T22:08:07.353Z,27.20
2022-08-14T22:10:35.246Z,27.20
2022-08-14T22:13:02.237Z,27.20
2022-08-14T22:15:32.322Z,27.20
2022-08-14T22:18:00.078Z,27.20
2022-08-14T22:20:29.169Z,27.20
2022-08-14T22:23:00.772Z,27.20
2022-08-14T22:25:33.535Z,27.20
2022-08-14T22:28:05.861Z,27.19
2022-08-14T22:30:33.815Z,27.21
2022-08-14T22:33:01.312Z,27.20
2022-08-14T22:35:29.486Z,27.20
2022-08-14T22:38:35.036Z,27.19
2022-08-14T22:41:12.468Z,27.19
2022-08-14T22:43:35.133Z,27.18
2022-08-14T22:46:14.304Z,27.17
2022-08-14T22:48:43.420Z,27.14
2022-08-14T22:51:18.421Z,27.17
2022-08-14T22:53:48.474Z,27.17
2022-08-14T22:56:20.488Z,27.16
2022-08-14T22:58:53.785Z,27.17
2022-08-14T23:01:55.198Z,27.16
2022-08-14T23:04:35.648Z,27.15
2022-08-14T23:07:21.884Z,27.15
2022-08-14T23:09:56.722Z,27.14
2022-08-14T23:12:31.813Z,27.14
2022-08-14T23:15:02.089Z,27.13
2022-08-14T23:17:39.046Z,27.14
2022-08-14T23:20:18.900Z,27.13
2022-08-14T23:22:48.916Z,27.13
2022-08-14T23:25:20.019Z,27.14
2022-08-14T23:30:35.141Z,27.12
2022-08-14T23:33:02.661Z,27.12
2022-08-14T23:35:33.293Z,27.10
2022-08-14T23:38:05.567Z,27.10
2022-08-14T23:40:34.387Z,27.10
2022-08-14T23:43:11.223Z,27.09
2022-08-14T23:45:41.265Z,27.09
2022-08-14T23:48:09.916Z,27.09
2022-08-14T23:50:41.439Z,27.09
2022-08-14T23:53:14.988Z,27.08
2022-08-14T23:55:57.407Z,27.08
2022-08-14T23:58:29.338Z,27.07
